| time (UTC) | temp C | wind direction | speed KPH | gust KPH | rain 1hr cm | rain 24hr cm | rain mn cm | humidity % | barometer mb |
| 20260507213035 | 23 | 312 | 6.4 | 12.9 | 0.00 | 0.00 | 0.00 | 33 | 1012.2 |
| 20260507211545 | 24 | 310 | 6.4 | 17.7 | 0.00 | 0.00 | 0.00 | 33 | 1012.4 |
| 20260507210036 | 23 | 311 | 4.8 | 20.9 | 0.00 | 0.00 | 0.00 | 34 | 1012.5 |
| 20260507204532 | 23 | 312 | 6.4 | 17.7 | 0.00 | 0.00 | 0.00 | 34 | 1012.7 |
| 20260507203038 | 23 | 322 | 4.8 | 14.5 | 0.00 | 0.00 | 0.00 | 35 | 1012.9 |
| 20260507201538 | 22 | 330 | 6.4 | 16.1 | 0.00 | 0.00 | 0.00 | 35 | 1012.9 |
| 20260507200038 | 22 | 320 | 6.4 | 17.7 | 0.00 | 0.00 | 0.00 | 35 | 1013.0 |
| 20260507194536 | 22 | 327 | 6.4 | 19.3 | 0.00 | 0.00 | 0.00 | 37 | 1013.1 |
| 20260507193040 | 21 | 329 | 6.4 | 22.5 | 0.00 | 0.00 | 0.00 | 38 | 1013.4 |
| 20260507191535 | 21 | 345 | 6.4 | 16.1 | 0.00 | 0.00 | 0.00 | 40 | 1013.6 |
| 20260507184645 | 21 | 24 | 6.4 | 17.7 | 0.00 | 0.00 | 0.00 | 43 | 1014.0 |
| 20260507183046 | 21 | 42 | 4.8 | 12.9 | 0.00 | 0.00 | 0.00 | 44 | 1014.1 |
| 20260507181537 | 20 | 16 | 3.2 | 11.3 | 0.00 | 0.00 | 0.00 | 46 | 1014.2 |
| 20260507180030 | 20 | 347 | 4.8 | 12.9 | 0.00 | 0.00 | 0.00 | 47 | 1014.3 |
| 20260507174606 | 19 | 350 | 3.2 | 12.9 | 0.00 | 0.00 | 0.00 | 49 | 1014.6 |
| 20260507173104 | 18 | 348 | 4.8 | 14.5 | 0.00 | 0.00 | 0.00 | 50 | 1014.8 |
| 20260507164551 | 17 | 24 | 3.2 | 14.5 | 0.00 | 0.00 | 0.00 | 56 | 1014.9 |
| 20260507163032 | 17 | 130 | 0.0 | 6.4 | 0.00 | 0.00 | 0.00 | 59 | 1014.9 |
| 20260507161534 | 16 | 115 | 1.6 | 9.7 | 0.00 | 0.00 | 0.00 | 61 | 1015.1 |
| 20260507160038 | 16 | 303 | 1.6 | 8.0 | 0.00 | 0.00 | 0.00 | 63 | 1015.3 |
| 20260507154534 | 15 | 115 | 1.6 | 17.7 | 0.00 | 0.00 | 0.00 | 68 | 1015.7 |
| 20260507151538 | 14 | 100 | 3.2 | 6.4 | 0.00 | 0.00 | 0.00 | 72 | 1015.8 |
| 20260507150052 | 13 | 113 | 1.6 | 6.4 | 0.00 | 0.00 | 0.00 | 76 | 1015.8 |
| 20260507143103 | 12 | 122 | 3.2 | 8.0 | 0.00 | 0.00 | 0.00 | 80 | 1015.7 |
| 20260507133135 | 11 | 239 | 0.0 | 9.7 | 0.00 | 0.00 | 0.00 | 80 | 1015.2 |
| 20260507131610 | 11 | 303 | 4.8 | 14.5 | 0.00 | 0.00 | 0.00 | 82 | 1015.1 |
| 20260507130036 | 10 | 318 | 4.8 | 14.5 | 0.00 | 0.00 | 0.00 | 84 | 1015.0 |
| 20260507124531 | 10 | 331 | 4.8 | 16.1 | 0.00 | 0.00 | 0.00 | 85 | 1015.1 |
| 20260507123036 | 10 | 305 | 4.8 | 11.3 | 0.00 | 0.00 | 0.00 | 85 | 1015.1 |
| 20260507121538 | 10 | 294 | 3.2 | 6.4 | 0.00 | 0.00 | 0.00 | 85 | 1015.0 |
| 20260507120139 | 10 | 273 | 1.6 | 4.8 | 0.00 | 0.00 | 0.00 | 85 | 1014.9 |
| 20260507114540 | 10 | 290 | 1.6 | 4.8 | 0.00 | 0.00 | 0.00 | 84 | 1014.8 |
| 20260507111535 | 10 | 292 | 1.6 | 6.4 | 0.00 | 0.00 | 0.00 | 82 | 1014.5 |
| 20260507110032 | 10 | 293 | 1.6 | 4.8 | 0.00 | 0.00 | 0.00 | 81 | 1014.4 |
| 20260507104551 | 11 | 294 | 1.6 | 8.0 | 0.00 | 0.00 | 0.00 | 80 | 1014.4 |
| 20260507103106 | 11 | 285 | 3.2 | 6.4 | 0.00 | 0.00 | 0.00 | 79 | 1014.4 |
| 20260507101532 | 11 | 269 | 1.6 | 6.4 | 0.00 | 0.00 | 0.00 | 77 | 1014.3 |
| 20260507100104 | 12 | 291 | 1.6 | 6.4 | 0.00 | 0.00 | 0.00 | 76 | 1014.2 |
| 20260507094645 | 12 | 303 | 1.6 | 8.0 | 0.00 | 0.00 | 0.00 | 73 | 1014.3 |
| 20260507091609 | 15 | 241 | 1.6 | 12.9 | 0.00 | 0.00 | 0.00 | 65 | 1014.2 |
| 20260507080035 | 13 | 24 | 0.0 | 6.4 | 0.00 | 0.00 | 0.00 | 75 | 1014.3 |
| 20260507074609 | 13 | 325 | 0.0 | 6.4 | 0.00 | 0.00 | 0.00 | 76 | 1014.3 |
| 20260507073031 | 13 | 4 | 1.6 | 8.0 | 0.00 | 0.00 | 0.00 | 76 | 1014.2 |
| 20260507070033 | 13 | 357 | 3.2 | 6.4 | 0.00 | 0.00 | 0.00 | 75 | 1014.3 |
| 20260507063035 | 14 | 252 | 0.0 | 4.8 | 0.00 | 0.00 | 0.00 | 73 | 1014.4 |
| 20260507061531 | 13 | 262 | 1.6 | 8.0 | 0.00 | 0.00 | 0.00 | 74 | 1014.5 |
| 20260507054532 | 14 | 328 | 0.0 | 4.8 | 0.00 | 0.00 | 0.00 | 69 | 1014.8 |
| 20260507053031 | 15 | 352 | 1.6 | 8.0 | 0.00 | 0.00 | 0.00 | 67 | 1014.9 |
| 20260507051535 | 15 | 354 | 1.6 | 9.7 | 0.00 | 0.00 | 0.00 | 63 | 1014.9 |
| 20260507050038 | 15 | 343 | 0.0 | 6.4 | 0.00 | 0.00 | 0.00 | 58 | 1014.9 |
| 20260507044529 | 17 | 3 | 0.0 | 4.8 | 0.00 | 0.00 | 0.00 | 55 | 1014.9 |
| 20260507043146 | 17 | 298 | 1.6 | 12.9 | 0.00 | 0.00 | 0.00 | 53 | 1014.7 |
| 20260507041633 | 17 | 247 | 3.2 | 11.3 | 0.00 | 0.00 | 0.00 | 51 | 1014.5 |
| 20260507040042 | 18 | 227 | 4.8 | 17.7 | 0.00 | 0.00 | 0.00 | 50 | 1014.3 |
| 20260507033033 | 18 | 238 | 4.8 | 14.5 | 0.00 | 0.00 | 0.00 | 49 | 1014.1 |
| 20260507014530 | 20 | 275 | 4.8 | 16.1 | 0.00 | 0.00 | 0.00 | 49 | 1013.4 |
| 20260507013037 | 20 | 273 | 6.4 | 19.3 | 0.00 | 0.00 | 0.00 | 48 | 1013.4 |
| 20260507011532 | 20 | 289 | 3.2 | 14.5 | 0.00 | 0.00 | 0.00 | 47 | 1013.4 |
| 20260507010033 | 20 | 283 | 6.4 | 16.1 | 0.00 | 0.00 | 0.00 | 47 | 1013.4 |
| 20260507004552 | 21 | 284 | 4.8 | 16.1 | 0.00 | 0.00 | 0.00 | 46 | 1013.3 |
| 20260507003032 | 21 | 286 | 4.8 | 16.1 | 0.00 | 0.00 | 0.00 | 45 | 1013.3 |
| 20260507001544 | 21 | 288 | 3.2 | 14.5 | 0.00 | 0.00 | 0.00 | 45 | 1013.1 |
| 20260507000029 | 21 | 287 | 4.8 | 20.9 | 0.00 | 0.00 | 0.00 | 45 | 1013.0 |
| 20260506234533 | 21 | 303 | 6.4 | 24.1 | 0.00 | 0.00 | 0.00 | 45 | 1012.8 |
| 20260506233032 | 22 | 305 | 4.8 | 16.1 | 0.00 | 0.00 | 0.00 | 44 | 1012.7 |
| 20260506231607 | 23 | 308 | 3.2 | 11.3 | 0.00 | 0.00 | 0.00 | 43 | 1012.8 |
| 20260506230030 | 23 | 309 | 4.8 | 11.3 | 0.00 | 0.00 | 0.00 | 42 | 1012.9 |
| 20260506224531 | 25 | 295 | 6.4 | 20.9 | 0.00 | 0.00 | 0.00 | 41 | 1012.9 |
| 20260506223042 | 25 | 291 | 6.4 | 17.7 | 0.00 | 0.00 | 0.00 | 40 | 1013.0 |
| 20260506220101 | 25 | 313 | 9.7 | 25.7 | 0.00 | 0.00 | 0.00 | 42 | 1013.1 |
| 20260506214538 | 25 | 319 | 8.0 | 22.5 | 0.00 | 0.00 | 0.00 | 42 | 1013.0 |